Time;durP1;ratioP1;P1;durP2;ratioP2;P2;SDS_P1;SDS_P2;PMS_P1;PMS_P2;Temp;Humidity;BMP_temperature;BMP_pressure;BME280_temperature;BME280_humidity;BME280_pressure;Samples;Min_cycle;Max_cycle;Signal;HPM_P1;HPM_P2
2023/05/29 00:02:08;;;;;;;10.52;3.95;;;13.40;67.50;;;;;;5053195;28;20041;-81
2023/05/29 00:04:39;;;;;;;10.18;2.35;;;13.30;67.50;;;;;;5051783;28;20055;-81
2023/05/29 00:07:06;;;;;;;5.22;2.28;;;13.30;67.80;;;;;;5051194;28;20045;-78
2023/05/29 00:09:35;;;;;;;6.68;2.30;;;13.20;68.20;;;;;;5041973;28;20051;-78
2023/05/29 00:12:03;;;;;;;4.82;2.20;;;13.20;68.30;;;;;;5045146;28;20059;-78
2023/05/29 00:14:30;;;;;;;5.40;1.88;;;13.20;68.20;;;;;;5052057;28;20509;-78
2023/05/29 00:16:58;;;;;;;6.95;2.72;;;13.20;68.50;;;;;;5054792;28;20105;-78
2023/05/29 00:19:25;;;;;;;8.00;2.22;;;13.20;68.80;;;;;;5070579;28;20040;-78
2023/05/29 00:21:53;;;;;;;6.50;2.40;;;13.20;69.00;;;;;;5054126;28;20130;-78
2023/05/29 00:24:20;;;;;;;12.68;3.50;;;13.20;69.10;;;;;;5053479;28;20049;-78
2023/05/29 00:26:49;;;;;;;7.75;2.78;;;13.20;70.10;;;;;;5070964;28;20500;-77
2023/05/29 00:29:17;;;;;;;11.90;3.35;;;13.10;69.40;;;;;;5069011;28;20041;-78
2023/05/29 00:31:44;;;;;;;15.73;3.20;;;13.10;69.60;;;;;;5050990;28;20516;-77
2023/05/29 00:34:12;;;;;;;17.20;3.97;;;13.10;70.00;;;;;;5052931;28;20127;-78
2023/05/29 00:36:39;;;;;;;16.77;3.47;;;13.00;70.10;;;;;;5058513;28;20131;-78
2023/05/29 00:39:07;;;;;;;7.95;2.72;;;13.00;70.20;;;;;;5066866;28;20052;-78
2023/05/29 00:41:34;;;;;;;5.53;2.92;;;13.00;70.30;;;;;;5051862;28;20117;-78
2023/05/29 00:44:03;;;;;;;9.20;2.97;;;12.90;70.40;;;;;;5060375;28;20379;-78
2023/05/29 00:46:32;;;;;;;9.93;3.45;;;12.90;70.60;;;;;;5064717;28;20075;-78
2023/05/29 00:49:00;;;;;;;16.73;3.25;;;12.90;70.90;;;;;;5053186;28;20048;-78
2023/05/29 00:51:31;;;;;;;9.95;2.70;;;12.90;70.90;;;;;;5049244;28;20079;-78
2023/05/29 00:53:59;;;;;;;7.95;2.72;;;12.90;71.00;;;;;;5051268;28;20045;-78
2023/05/29 00:56:27;;;;;;;10.35;3.50;;;12.90;71.60;;;;;;5053252;28;20057;-79
2023/05/29 00:58:55;;;;;;;19.17;6.00;;;13.00;71.70;;;;;;5050444;28;20488;-78
2023/05/29 01:01:24;;;;;;;30.00;5.57;;;13.00;71.60;;;;;;5042632;28;20060;-77
2023/05/29 01:03:55;;;;;;;25.73;6.00;;;13.10;71.70;;;;;;5069164;28;20055;-77
2023/05/29 01:06:22;;;;;;;23.73;4.97;;;13.10;71.80;;;;;;5063637;28;20686;-78
2023/05/29 01:08:50;;;;;;;27.02;5.72;;;13.10;71.40;;;;;;5032257;28;20402;-78
2023/05/29 01:11:43;;;;;;;22.52;4.90;;;13.10;72.10;;;;;;5050956;28;20049;-78
2023/05/29 01:14:18;;;;;;;23.75;4.55;;;13.10;71.80;;;;;;5063558;28;20083;-78
2023/05/29 01:16:55;;;;;;;17.85;4.18;;;13.10;71.80;;;;;;5054315;28;20052;-79
2023/05/29 01:19:46;;;;;;;21.65;5.47;;;13.10;72.30;;;;;;5043159;28;20053;-78
2023/05/29 01:22:23;;;;;;;29.42;5.10;;;13.10;72.30;;;;;;5069513;28;20060;-78
2023/05/29 01:25:04;;;;;;;19.75;3.50;;;13.00;72.30;;;;;;5055366;28;20052;-77
2023/05/29 01:27:34;;;;;;;20.58;4.57;;;12.90;72.20;;;;;;5045997;28;20071;-77
2023/05/29 01:30:05;;;;;;;14.23;3.30;;;12.90;72.60;;;;;;5066685;28;20049;-77
2023/05/29 01:32:33;;;;;;;9.02;3.50;;;12.90;72.70;;;;;;5069534;28;20066;-80
2023/05/29 01:35:01;;;;;;;6.70;3.10;;;12.90;72.90;;;;;;5053864;28;20102;-77
2023/05/29 01:37:31;;;;;;;14.82;3.67;;;12.90;73.10;;;;;;5051020;28;20053;-77
2023/05/29 01:39:58;;;;;;;7.72;3.05;;;12.90;73.10;;;;;;5052751;28;20111;-76
2023/05/29 01:42:28;;;;;;;11.32;2.97;;;12.90;73.30;;;;;;5067900;28;20051;-77
2023/05/29 01:44:58;;;;;;;11.20;3.15;;;13.00;73.50;;;;;;5055281;28;20099;-78
2023/05/29 01:47:25;;;;;;;9.07;2.55;;;13.00;73.60;;;;;;5055835;28;20143;-78
2023/05/29 01:49:53;;;;;;;6.60;3.25;;;13.00;73.70;;;;;;5049654;28;20091;-78
2023/05/29 01:52:21;;;;;;;6.30;2.58;;;13.00;73.80;;;;;;5054766;28;20396;-79
2023/05/29 01:54:49;;;;;;;6.90;2.83;;;13.00;74.00;;;;;;5051121;28;20056;-78
2023/05/29 01:57:17;;;;;;;13.15;3.30;;;12.90;74.20;;;;;;5051340;28;20069;-79
2023/05/29 01:59:45;;;;;;;5.47;3.05;;;12.90;74.70;;;;;;5066728;28;20059;-79
2023/05/29 02:02:14;;;;;;;13.23;3.22;;;12.80;75.60;;;;;;5052952;28;20452;-78
2023/05/29 02:04:44;;;;;;;31.10;5.75;;;12.80;76.20;;;;;;5051764;28;20079;-79
2023/05/29 02:07:12;;;;;;;19.30;5.97;;;12.80;75.90;;;;;;5054544;28;20528;-78
2023/05/29 02:09:40;;;;;;;42.58;6.80;;;12.80;76.00;;;;;;5054034;28;20154;-78
2023/05/29 02:12:08;;;;;;;25.48;4.93;;;12.70;76.10;;;;;;5066891;28;20044;-78
2023/05/29 02:14:36;;;;;;;23.10;5.47;;;12.70;77.50;;;;;;5051066;28;20048;-77
2023/05/29 02:17:05;;;;;;;22.02;4.43;;;12.60;77.10;;;;;;5056020;28;20099;-78
2023/05/29 02:19:34;;;;;;;14.23;4.07;;;12.60;78.40;;;;;;5062334;28;20044;-78
2023/05/29 02:22:01;;;;;;;17.77;3.60;;;12.60;79.90;;;;;;5066116;28;20049;-78
2023/05/29 02:24:30;;;;;;;6.65;2.97;;;12.60;81.20;;;;;;5039120;28;20044;-78
2023/05/29 02:26:58;;;;;;;8.48;2.80;;;12.70;82.30;;;;;;5052442;28;20048;-78
2023/05/29 02:29:25;;;;;;;13.25;3.30;;;12.70;83.50;;;;;;5060670;28;20100;-78
2023/05/29 02:31:55;;;;;;;6.57;2.58;;;12.70;85.60;;;;;;5050229;28;20106;-78
2023/05/29 02:34:23;;;;;;;8.68;2.50;;;12.70;88.50;;;;;;5066937;28;20151;-78
2023/05/29 02:36:52;;;;;;;7.55;3.08;;;12.70;91.70;;;;;;5053916;28;20048;-78
2023/05/29 02:39:20;;;;;;;8.07;2.40;;;12.70;95.40;;;;;;5051150;28;20044;-78
2023/05/29 02:41:48;;;;;;;5.97;2.50;;;12.70;99.90;;;;;;5044485;28;20936;-78
2023/05/29 02:44:15;;;;;;;6.38;2.30;;;12.80;99.90;;;;;;5069261;28;20049;-78
2023/05/29 02:46:45;;;;;;;9.00;2.83;;;12.70;99.90;;;;;;5065403;28;20048;-78
2023/05/29 02:49:13;;;;;;;11.93;2.80;;;12.70;99.90;;;;;;5059435;28;20044;-78
2023/05/29 02:51:42;;;;;;;8.27;2.25;;;12.80;99.90;;;;;;5061999;28;20131;-77
2023/05/29 02:54:12;;;;;;;6.40;2.55;;;12.70;99.90;;;;;;5049825;28;20402;-78
2023/05/29 02:56:39;;;;;;;11.38;3.20;;;12.70;99.90;;;;;;5053031;28;20513;-77
2023/05/29 02:59:07;;;;;;;4.90;2.75;;;12.80;99.90;;;;;;5051709;28;20126;-78
2023/05/29 03:01:34;;;;;;;8.45;2.78;;;12.80;99.90;;;;;;5066104;28;20091;-79
2023/05/29 03:04:02;;;;;;;10.52;2.80;;;12.80;99.90;;;;;;5054946;28;20076;-77
2023/05/29 03:06:29;;;;;;;13.43;2.92;;;12.80;99.90;;;;;;5045762;28;20037;-78
2023/05/29 03:08:59;;;;;;;8.63;3.28;;;12.80;99.90;;;;;;5049773;28;20463;-79
2023/05/29 03:11:28;;;;;;;6.40;3.13;;;12.80;99.90;;;;;;5032758;28;20052;-79
2023/05/29 03:13:58;;;;;;;5.70;3.13;;;12.90;99.90;;;;;;5061860;28;20098;-79
2023/05/29 03:16:29;;;;;;;7.13;3.25;;;12.90;99.90;;;;;;5036363;28;20424;-80
2023/05/29 03:18:57;;;;;;;8.38;3.75;;;12.90;99.90;;;;;;5069790;28;20048;-79
2023/05/29 03:21:25;;;;;;;11.98;3.50;;;12.90;99.90;;;;;;5050717;28;20131;-78
2023/05/29 03:23:53;;;;;;;8.98;3.83;;;12.90;99.90;;;;;;5059229;28;20052;-79
2023/05/29 03:26:21;;;;;;;11.85;3.75;;;12.90;99.90;;;;;;5064182;28;20106;-78
2023/05/29 03:28:51;;;;;;;9.93;3.97;;;12.90;99.90;;;;;;5073486;28;20067;-79
2023/05/29 03:31:21;;;;;;;13.10;4.07;;;12.90;99.90;;;;;;5065301;28;20504;-79
2023/05/29 03:33:50;;;;;;;8.05;3.30;;;13.00;99.90;;;;;;5069811;28;20424;-81
2023/05/29 03:36:31;;;;;;;12.02;4.07;;;13.00;99.90;;;;;;5048895;28;20037;-81
2023/05/29 03:38:59;;;;;;;7.80;3.60;;;13.00;99.90;;;;;;5057404;28;20133;-81
2023/05/29 03:41:27;;;;;;;12.38;3.40;;;13.10;99.90;;;;;;5066787;28;20041;-82
2023/05/29 03:43:56;;;;;;;12.20;4.32;;;13.10;99.90;;;;;;5069811;28;20493;-82
2023/05/29 03:46:28;;;;;;;6.45;3.95;;;13.10;99.90;;;;;;5049769;28;20500;-80
2023/05/29 03:48:55;;;;;;;10.60;4.00;;;13.10;99.90;;;;;;5055181;28;20100;-80
2023/05/29 03:51:23;;;;;;;10.00;3.13;;;13.10;99.90;;;;;;5056255;28;20064;-82
2023/05/29 03:53:52;;;;;;;9.57;4.20;;;13.10;99.90;;;;;;5063201;28;20057;-83
2023/05/29 03:56:21;;;;;;;15.45;4.75;;;13.10;99.90;;;;;;5058468;28;20079;-82
2023/05/29 03:58:49;;;;;;;14.43;4.43;;;13.20;99.90;;;;;;5064761;28;20067;-82
2023/05/29 04:01:18;;;;;;;12.48;4.10;;;13.20;99.90;;;;;;5039350;28;20051;-80
2023/05/29 04:03:46;;;;;;;12.30;4.30;;;13.20;99.90;;;;;;5059665;28;20045;-80
2023/05/29 04:06:14;;;;;;;16.55;4.28;;;13.30;99.90;;;;;;5070443;28;20048;-80
2023/05/29 04:08:42;;;;;;;6.40;4.07;;;13.30;99.90;;;;;;5061317;28;20052;-82
2023/05/29 04:11:11;;;;;;;10.93;3.95;;;13.40;99.90;;;;;;5068566;28;20044;-81
2023/05/29 04:13:40;;;;;;;16.42;7.22;;;13.40;99.90;;;;;;5064703;28;20045;-85
2023/05/29 04:16:08;;;;;;;11.40;4.32;;;13.50;99.90;;;;;;5055768;28;20086;-83
2023/05/29 04:18:37;;;;;;;18.58;5.03;;;13.70;99.90;;;;;;5064096;28;20045;-78
2023/05/29 04:21:05;;;;;;;12.13;4.00;;;13.90;99.90;;;;;;5054509;28;20044;-77
2023/05/29 04:23:33;;;;;;;10.40;3.47;;;14.10;99.90;;;;;;5058538;28;20041;-77
2023/05/29 04:26:01;;;;;;;11.80;4.05;;;14.30;99.90;;;;;;5051198;28;20428;-79
2023/05/29 04:28:29;;;;;;;10.77;3.60;;;14.60;99.90;;;;;;5052258;28;20041;-78
2023/05/29 04:30:58;;;;;;;14.73;4.85;;;14.70;99.90;;;;;;5048383;28;20071;-78
2023/05/29 04:33:28;;;;;;;10.32;3.60;;;14.70;99.90;;;;;;5066537;28;20083;-77
2023/05/29 04:35:58;;;;;;;9.07;3.55;;;14.80;99.90;;;;;;5051096;28;20057;-76
2023/05/29 04:38:26;;;;;;;12.27;3.75;;;14.70;99.90;;;;;;5075239;28;20056;-76
2023/05/29 04:40:57;;;;;;;11.60;3.63;;;14.70;99.90;;;;;;5067544;28;20455;-82
2023/05/29 04:43:26;;;;;;;8.98;4.63;;;14.60;99.90;;;;;;5052461;28;20045;-86
2023/05/29 04:46:04;;;;;;;12.10;4.32;;;14.50;99.90;;;;;;5066956;28;20043;-85
2023/05/29 04:48:35;;;;;;;12.45;4.07;;;14.50;99.90;;;;;;5071548;28;20052;-85
2023/05/29 04:51:10;;;;;;;10.50;4.43;;;14.60;99.90;;;;;;5068036;28;20135;-85
2023/05/29 04:53:41;;;;;;;10.10;3.83;;;14.60;99.90;;;;;;5052288;28;20056;-85
2023/05/29 04:56:10;;;;;;;12.18;4.28;;;14.60;99.90;;;;;;5052625;28;20504;-86
2023/05/29 04:58:38;;;;;;;11.73;3.90;;;14.70;99.90;;;;;;5055123;28;20044;-84
2023/05/29 05:01:08;;;;;;;13.98;4.80;;;14.90;99.90;;;;;;5040548;28;20041;-84
2023/05/29 05:03:35;;;;;;;14.70;4.32;;;15.10;99.90;;;;;;5066828;28;20072;-85
2023/05/29 05:06:07;;;;;;;9.00;4.95;;;15.00;99.90;;;;;;5039082;28;20148;-79
2023/05/29 05:08:35;;;;;;;9.00;4.38;;;15.00;99.90;;;;;;5047918;28;20090;-80
2023/05/29 05:11:04;;;;;;;11.15;4.30;;;14.90;99.90;;;;;;5044123;28;20045;-83
2023/05/29 05:13:31;;;;;;;9.18;4.43;;;14.80;99.90;;;;;;5055076;28;20051;-82
2023/05/29 05:16:01;;;;;;;9.73;4.40;;;14.70;99.90;;;;;;5055703;28;20516;-81
2023/05/29 05:18:31;;;;;;;18.15;4.65;;;14.80;99.90;;;;;;5087052;28;20059;-82
2023/05/29 05:21:05;;;;;;;6.60;4.03;;;14.90;99.90;;;;;;5068664;28;20061;-86
2023/05/29 05:23:35;;;;;;;10.35;5.43;;;14.90;99.90;;;;;;5049491;28;20044;-82
2023/05/29 05:26:03;;;;;;;11.48;4.78;;;15.00;99.90;;;;;;5043300;28;20045;-81
2023/05/29 05:28:34;;;;;;;11.65;4.80;;;15.10;99.90;;;;;;5060642;28;20041;-82
2023/05/29 05:31:02;;;;;;;10.10;4.93;;;15.20;99.90;;;;;;4992345;28;20060;-83
2023/05/29 05:33:32;;;;;;;11.20;4.65;;;15.40;99.90;;;;;;5049759;28;20493;-84
2023/05/29 05:36:01;;;;;;;12.50;4.20;;;15.70;99.90;;;;;;5059016;28;20508;-83
2023/05/29 05:38:30;;;;;;;9.57;4.47;;;15.90;99.90;;;;;;5068506;28;20408;-84
2023/05/29 05:40:59;;;;;;;13.07;3.97;;;16.10;99.90;;;;;;5053197;28;20132;-86
2023/05/29 05:43:31;;;;;;;8.43;3.97;;;16.60;99.90;;;;;;5050207;28;20409;-82
2023/05/29 05:46:07;;;;;;;9.77;3.72;;;16.80;99.90;;;;;;5033717;28;20102;-83
2023/05/29 05:48:36;;;;;;;11.30;4.45;;;17.20;99.90;;;;;;5050584;28;20057;-82
2023/05/29 05:51:05;;;;;;;7.72;4.68;;;17.60;99.90;;;;;;5044121;28;20048;-83
2023/05/29 05:53:35;;;;;;;7.88;3.58;;;17.80;99.90;;;;;;5059659;28;20505;-82
2023/05/29 05:56:02;;;;;;;9.63;3.90;;;17.80;99.90;;;;;;5058283;28;20045;-83
2023/05/29 05:58:30;;;;;;;14.60;4.30;;;17.90;99.90;;;;;;5061500;28;20040;-83
2023/05/29 06:00:59;;;;;;;8.73;3.45;;;18.30;99.90;;;;;;5053165;28;20055;-77
2023/05/29 06:03:27;;;;;;;10.57;3.75;;;18.80;99.90;;;;;;5066494;28;20052;-77
2023/05/29 06:06:02;;;;;;;8.60;3.72;;;19.40;99.90;;;;;;5042113;28;20049;-82
2023/05/29 06:08:31;;;;;;;6.97;3.72;;;19.90;99.90;;;;;;5055175;28;20142;-79
2023/05/29 06:11:00;;;;;;;6.45;4.07;;;20.30;99.90;;;;;;5060741;28;20041;-78
2023/05/29 06:13:28;;;;;;;9.38;4.28;;;20.70;99.90;;;;;;5060970;28;20401;-79
2023/05/29 06:16:06;;;;;;;9.18;3.85;;;20.90;99.90;;;;;;5077807;28;20051;-79
2023/05/29 06:18:33;;;;;;;10.13;3.63;;;21.30;99.90;;;;;;5038648;28;20119;-80
2023/05/29 06:21:01;;;;;;;9.05;3.92;;;21.60;99.90;;;;;;5062909;28;20041;-78
2023/05/29 06:23:29;;;;;;;8.80;3.88;;;21.80;99.90;;;;;;5077480;28;20053;-78
2023/05/29 06:25:57;;;;;;;12.85;4.07;;;22.00;98.80;;;;;;5059245;28;20044;-78
2023/05/29 06:28:26;;;;;;;9.10;3.72;;;22.30;98.10;;;;;;5043210;28;20041;-78
2023/05/29 06:30:54;;;;;;;9.88;3.72;;;22.40;95.80;;;;;;5043969;28;20071;-80
2023/05/29 06:33:23;;;;;;;8.80;3.40;;;22.60;95.00;;;;;;5032447;28;20296;-79
2023/05/29 06:35:51;;;;;;;11.07;3.20;;;22.70;93.20;;;;;;5061565;28;20063;-81
2023/05/29 06:38:19;;;;;;;6.68;2.95;;;23.00;90.40;;;;;;5043295;28;20135;-77
2023/05/29 06:40:46;;;;;;;8.70;3.17;;;22.90;90.10;;;;;;5064196;28;20417;-79
2023/05/29 06:43:14;;;;;;;4.85;2.97;;;23.00;90.00;;;;;;5055135;28;20037;-79
2023/05/29 06:45:49;;;;;;;6.18;2.63;;;23.40;88.10;;;;;;5052143;28;20102;-78
2023/05/29 06:48:19;;;;;;;10.68;3.58;;;23.70;87.20;;;;;;5047425;28;20052;-79
2023/05/29 06:50:49;;;;;;;4.82;3.15;;;23.90;84.50;;;;;;5032438;28;20056;-79
2023/05/29 06:53:39;;;;;;;7.85;3.28;;;24.30;83.70;;;;;;5063749;28;20056;-80
2023/05/29 06:56:08;;;;;;;4.85;2.92;;;24.60;80.80;;;;;;5066550;28;20045;-79
2023/05/29 06:58:36;;;;;;;7.45;3.25;;;24.60;79.10;;;;;;5050545;28;20516;-79
2023/05/29 07:01:05;;;;;;;9.40;3.03;;;24.70;77.50;;;;;;5060570;28;20508;-79
2023/05/29 07:03:34;;;;;;;9.45;3.70;;;24.90;77.00;;;;;;5049057;28;20059;-79
2023/05/29 07:06:04;;;;;;;5.90;2.72;;;25.30;76.30;;;;;;5048899;28;20076;-80
2023/05/29 07:08:33;;;;;;;6.50;3.05;;;25.10;74.50;;;;;;5081840;28;20421;-81
2023/05/29 07:11:02;;;;;;;5.13;3.45;;;24.50;73.60;;;;;;5049798;28;20299;-79
2023/05/29 07:13:29;;;;;;;10.40;3.13;;;24.20;75.00;;;;;;5049653;28;20091;-79
2023/05/29 07:15:57;;;;;;;12.32;3.60;;;24.60;75.70;;;;;;5048763;28;20040;-80
2023/05/29 07:18:34;;;;;;;11.68;3.38;;;24.80;75.10;;;;;;5056734;28;20066;-80
2023/05/29 07:21:08;;;;;;;5.60;3.47;;;25.20;73.10;;;;;;5059325;28;20055;-80
2023/05/29 07:23:37;;;;;;;13.15;3.83;;;25.70;72.40;;;;;;5058638;28;20056;-79
2023/05/29 07:26:04;;;;;;;7.90;2.90;;;26.10;72.90;;;;;;5051729;28;20128;-79
2023/05/29 07:28:32;;;;;;;6.97;3.50;;;26.40;69.10;;;;;;5032526;28;20041;-81
2023/05/29 07:31:02;;;;;;;8.60;3.15;;;26.50;69.10;;;;;;5067850;28;20044;-79
2023/05/29 07:33:30;;;;;;;6.35;3.00;;;26.60;69.00;;;;;;5044602;28;20044;-80
2023/05/29 07:36:00;;;;;;;7.07;2.92;;;27.00;68.50;;;;;;5063833;28;20123;-81
2023/05/29 07:38:37;;;;;;;9.35;3.00;;;27.50;66.00;;;;;;5067718;28;20049;-81
2023/05/29 07:41:05;;;;;;;6.05;3.33;;;27.70;63.10;;;;;;5035526;28;20143;-83
2023/05/29 07:43:34;;;;;;;9.80;2.78;;;28.10;63.00;;;;;;5047550;28;20049;-85
2023/05/29 07:46:08;;;;;;;9.27;3.10;;;27.90;63.40;;;;;;5059984;28;20103;-85
2023/05/29 07:48:39;;;;;;;7.85;3.05;;;28.00;64.20;;;;;;5049918;28;20051;-85
2023/05/29 07:51:10;;;;;;;6.85;3.13;;;27.80;62.40;;;;;;5071524;28;20040;-83
2023/05/29 07:53:50;;;;;;;10.50;3.33;;;26.70;63.10;;;;;;5051298;28;20079;-84
2023/05/29 07:56:21;;;;;;;7.80;2.67;;;26.30;66.20;;;;;;5062140;28;20048;-83
2023/05/29 07:58:49;;;;;;;7.10;2.92;;;26.10;63.40;;;;;;5041845;28;20477;-84
2023/05/29 08:01:18;;;;;;;7.50;3.35;;;25.10;65.80;;;;;;5060928;28;20045;-84
2023/05/29 08:03:46;;;;;;;4.63;3.13;;;24.30;67.40;;;;;;5061313;28;20136;-82
2023/05/29 08:06:18;;;;;;;6.03;2.88;;;23.50;70.00;;;;;;5058957;28;20041;-82
2023/05/29 08:08:47;;;;;;;7.55;3.20;;;22.60;72.10;;;;;;5074410;28;20041;-81
2023/05/29 08:11:20;;;;;;;7.95;3.42;;;22.10;73.70;;;;;;5041714;28;20394;-80
2023/05/29 08:13:56;;;;;;;8.27;2.85;;;21.90;75.40;;;;;;5068057;28;20063;-82
2023/05/29 08:16:28;;;;;;;8.38;2.90;;;22.10;75.80;;;;;;5047726;28;20049;-80
2023/05/29 08:18:56;;;;;;;7.90;3.28;;;22.00;75.80;;;;;;5053857;28;20059;-80
2023/05/29 08:21:28;;;;;;;6.00;2.80;;;22.70;76.40;;;;;;5054565;28;20623;-80
2023/05/29 08:23:55;;;;;;;9.27;2.55;;;23.80;73.40;;;;;;5069416;28;20090;-82
2023/05/29 08:26:29;;;;;;;4.10;2.35;;;25.10;69.60;;;;;;5072890;28;20050;-80
2023/05/29 08:28:56;;;;;;;16.10;2.88;;;25.70;65.10;;;;;;5073136;28;20076;-81
2023/05/29 08:31:25;;;;;;;6.57;2.60;;;25.30;65.40;;;;;;5068980;28;20055;-78
2023/05/29 08:33:53;;;;;;;5.10;2.17;;;24.50;65.80;;;;;;5055962;28;20527;-81
2023/05/29 08:36:25;;;;;;;7.07;2.40;;;24.00;66.00;;;;;;5052734;28;20494;-82
2023/05/29 08:38:54;;;;;;;5.85;2.40;;;23.30;65.30;;;;;;5059150;28;20530;-80
2023/05/29 08:41:29;;;;;;;6.15;2.47;;;22.50;67.40;;;;;;5062314;28;20055;-78
2023/05/29 08:44:00;;;;;;;12.48;2.10;;;22.00;68.70;;;;;;5066110;28;20447;-78
2023/05/29 08:46:28;;;;;;;11.75;2.33;;;21.60;67.80;;;;;;5057281;28;20048;-80
2023/05/29 08:48:59;;;;;;;8.52;2.05;;;21.00;68.70;;;;;;5061073;28;20052;-80
2023/05/29 08:51:34;;;;;;;6.50;1.98;;;20.40;70.80;;;;;;5063210;28;20045;-78
2023/05/29 08:54:04;;;;;;;7.40;2.33;;;19.90;71.90;;;;;;5056226;28;20076;-85
2023/05/29 08:56:32;;;;;;;6.95;2.50;;;19.70;73.70;;;;;;5059915;28;20045;-81
2023/05/29 08:59:02;;;;;;;6.38;2.15;;;19.50;74.50;;;;;;4988701;28;20049;-83
2023/05/29 09:01:30;;;;;;;8.30;2.40;;;19.30;75.30;;;;;;5025997;28;20513;-83
2023/05/29 09:03:59;;;;;;;7.70;2.30;;;19.20;75.40;;;;;;5052515;28;20057;-82
2023/05/29 09:06:48;;;;;;;7.38;2.00;;;19.00;75.60;;;;;;5061574;28;20053;-86
2023/05/29 09:09:17;;;;;;;5.97;2.03;;;18.90;76.50;;;;;;5047569;28;20041;-78
2023/05/29 09:11:45;;;;;;;6.00;2.33;;;18.80;77.00;;;;;;5051591;28;20424;-83
2023/05/29 09:14:35;;;;;;;6.68;1.83;;;18.90;75.20;;;;;;5045587;28;20053;-79
2023/05/29 09:17:05;;;;;;;6.43;2.08;;;19.00;74.50;;;;;;5053716;28;20048;-77
2023/05/29 09:19:35;;;;;;;5.57;1.92;;;19.60;73.50;;;;;;5063568;28;20075;-83
2023/05/29 09:22:05;;;;;;;6.88;1.95;;;21.40;73.30;;;;;;5057440;28;20539;-87
2023/05/29 09:24:37;;;;;;;6.72;1.70;;;23.60;64.10;;;;;;5058901;28;20041;-82
2023/05/29 09:27:07;;;;;;;6.40;1.20;;;24.00;57.20;;;;;;5064077;28;20132;-84
2023/05/29 09:29:39;;;;;;;5.22;1.65;;;23.60;55.00;;;;;;5066632;28;20044;-82
2023/05/29 09:32:09;;;;;;;4.18;1.30;;;23.00;56.70;;;;;;5060991;28;20095;-74
2023/05/29 09:34:37;;;;;;;3.40;1.55;;;22.50;58.10;;;;;;5064089;28;20108;-78
2023/05/29 09:37:08;;;;;;;2.55;1.50;;;21.90;58.90;;;;;;5051235;28;20044;-76
2023/05/29 09:39:47;;;;;;;2.90;1.27;;;21.40;59.60;;;;;;5058411;28;20390;-75
2023/05/29 09:42:16;;;;;;;3.58;1.25;;;21.00;59.50;;;;;;5058388;28;20563;-81
2023/05/29 09:44:46;;;;;;;1.52;0.70;;;20.60;59.40;;;;;;5063597;28;20144;-77
2023/05/29 09:47:17;;;;;;;4.75;0.77;;;20.10;59.40;;;;;;5053291;28;20205;-76
2023/05/29 09:49:46;;;;;;;6.57;1.33;;;19.70;60.60;;;;;;5063187;28;20147;-82
2023/05/29 09:52:15;;;;;;;2.10;1.30;;;19.50;63.30;;;;;;5059555;28;20128;-77
2023/05/29 09:54:46;;;;;;;2.63;1.17;;;19.90;65.00;;;;;;5051430;28;20040;-75
2023/05/29 09:57:15;;;;;;;3.53;1.00;;;21.00;60.50;;;;;;5056347;28;20056;-75
2023/05/29 09:59:46;;;;;;;2.10;1.60;;;21.30;59.30;;;;;;5064664;28;20052;-76
2023/05/29 10:02:16;;;;;;;5.53;1.40;;;21.10;60.90;;;;;;5063312;28;20490;-78
2023/05/29 10:04:44;;;;;;;1.00;0.80;;;20.90;61.90;;;;;;5052444;28;20091;-78
2023/05/29 10:07:21;;;;;;;2.35;1.00;;;20.80;60.40;;;;;;5050330;28;20615;-78
2023/05/29 10:10:00;;;;;;;3.63;0.85;;;20.60;58.70;;;;;;5052915;28;20090;-77
2023/05/29 10:12:30;;;;;;;4.32;0.85;;;20.10;58.20;;;;;;5056148;28;20057;-77
2023/05/29 10:15:01;;;;;;;3.40;0.90;;;19.60;58.60;;;;;;5053646;28;20020;-78
2023/05/29 10:17:34;;;;;;;1.08;0.70;;;19.30;59.40;;;;;;5051184;28;20045;-77
2023/05/29 10:20:03;;;;;;;;;;;19.20;59.50;;;;;;5057697;28;20471;-77
2023/05/29 10:22:33;;;;;;;1.38;0.70;;;19.20;60.00;;;;;;5050846;28;19970;-77
2023/05/29 10:25:02;;;;;;;4.35;0.80;;;19.10;60.70;;;;;;5059127;28;20607;-75
2023/05/29 10:27:32;;;;;;;4.00;0.70;;;18.90;60.10;;;;;;5048106;28;20152;-76
2023/05/29 10:30:10;;;;;;;2.15;0.60;;;18.80;59.80;;;;;;5062595;28;20052;-76
2023/05/29 10:33:03;;;;;;;1.25;0.60;;;18.70;59.80;;;;;;5056466;28;20079;-78
2023/05/29 10:35:41;;;;;;;2.90;0.70;;;18.70;59.70;;;;;;5062163;28;20052;-76
2023/05/29 10:38:15;;;;;;;3.15;0.70;;;18.60;59.70;;;;;;5054175;28;20036;-77
2023/05/29 10:40:44;;;;;;;3.33;1.50;;;18.50;60.40;;;;;;5050758;28;20060;-82
2023/05/29 10:43:33;;;;;;;1.50;0.98;;;18.40;59.10;;;;;;5053841;28;20064;-82
2023/05/29 10:46:02;;;;;;;1.17;0.65;;;18.30;59.40;;;;;;5049722;28;20132;-80
2023/05/29 10:48:41;;;;;;;2.08;0.43;;;18.30;60.10;;;;;;5060140;28;20067;-81
2023/05/29 10:51:25;;;;;;;1.25;0.57;;;18.30;59.70;;;;;;5055939;28;20067;-82
2023/05/29 10:53:53;;;;;;;5.60;0.50;;;18.30;60.60;;;;;;5052015;28;20059;-82
2023/05/29 10:56:31;;;;;;;3.28;1.10;;;18.30;60.90;;;;;;5060105;28;20119;-82
2023/05/29 10:59:02;;;;;;;4.80;0.63;;;18.40;61.40;;;;;;5051268;28;20037;-82
2023/05/29 11:01:31;;;;;;;2.08;0.77;;;18.50;60.90;;;;;;5058378;28;20052;-84
2023/05/29 11:04:31;;;;;;;3.67;0.82;;;18.30;60.00;;;;;;5061831;28;20048;-82
2023/05/29 11:07:00;;;;;;;1.60;0.65;;;18.30;60.00;;;;;;5064742;28;20420;-81
2023/05/29 11:09:34;;;;;;;3.83;0.80;;;18.20;61.80;;;;;;5048159;28;20432;-82
2023/05/29 11:12:35;;;;;;;5.43;0.80;;;18.10;63.40;;;;;;5061193;28;20064;-77
2023/05/29 11:15:06;;;;;;;2.35;1.00;;;18.00;65.70;;;;;;5060158;28;20098;-78
2023/05/29 11:17:46;;;;;;;4.65;0.80;;;18.30;67.30;;;;;;5063513;28;20091;-76
2023/05/29 11:20:38;;;;;;;3.70;0.88;;;18.90;65.30;;;;;;5054811;28;20063;-77
2023/05/29 11:23:08;;;;;;;5.75;0.82;;;20.30;63.30;;;;;;5051487;28;20095;-77
2023/05/29 11:25:39;;;;;;;1.23;0.73;;;21.20;59.60;;;;;;5055506;28;20587;-81
2023/05/29 11:28:10;;;;;;;3.53;0.90;;;21.40;58.40;;;;;;5057690;28;20098;-78
2023/05/29 11:30:47;;;;;;;2.90;0.63;;;21.10;58.90;;;;;;5040238;28;20049;-79
2023/05/29 11:33:26;;;;;;;8.27;0.90;;;21.00;58.10;;;;;;5063536;28;20061;-80
2023/05/29 11:35:59;;;;;;;1.40;0.85;;;21.10;59.60;;;;;;5060555;28;20320;-79
2023/05/29 11:38:30;;;;;;;3.58;0.80;;;20.90;59.40;;;;;;5053809;28;20045;-79
2023/05/29 11:40:58;;;;;;;6.00;0.85;;;20.70;59.40;;;;;;5072490;28;20067;-81
2023/05/29 11:43:28;;;;;;;4.45;1.00;;;21.00;59.90;;;;;;5056569;28;20049;-79
2023/05/29 11:45:56;;;;;;;2.00;0.80;;;22.10;58.20;;;;;;5062670;28;20049;-84
2023/05/29 11:48:25;;;;;;;5.50;0.60;;;23.70;57.30;;;;;;5055734;28;20142;-84
2023/05/29 11:50:53;;;;;;;2.08;0.82;;;24.30;52.60;;;;;;5052310;28;20055;-80
2023/05/29 11:53:21;;;;;;;4.53;0.50;;;24.10;51.80;;;;;;5051226;28;20048;-80
2023/05/29 11:55:50;;;;;;;4.45;0.63;;;24.40;51.50;;;;;;5055148;28;20681;-80
2023/05/29 11:58:18;;;;;;;10.15;0.70;;;25.00;50.60;;;;;;5052540;28;20053;-81
2023/05/29 12:00:50;;;;;;;3.80;0.40;;;26.10;48.60;;;;;;5056742;28;20138;-86
2023/05/29 12:03:17;;;;;;;;;;;26.40;45.80;;;;;;5056693;28;20055;-85
2023/05/29 12:05:52;;;;;;;3.67;0.50;;;26.80;45.40;;;;;;5066351;28;19931;-85
2023/05/29 12:08:23;;;;;;;3.13;0.50;;;27.60;45.30;;;;;;5057279;28;20072;-81
2023/05/29 12:10:53;;;;;;;5.82;0.73;;;28.00;45.10;;;;;;5061331;28;20513;-81
2023/05/29 12:13:23;;;;;;;3.72;0.32;;;28.40;42.80;;;;;;5057041;28;20105;-83
2023/05/29 12:15:55;;;;;;;9.95;0.88;;;28.50;41.40;;;;;;5055472;28;20505;-84
2023/05/29 12:18:25;;;;;;;5.10;1.02;;;28.80;39.30;;;;;;5056173;28;20060;-85
2023/05/29 12:20:59;;;;;;;5.28;0.55;;;29.10;39.00;;;;;;5050382;28;20067;-83
2023/05/29 12:23:26;;;;;;;1.90;0.55;;;30.10;38.40;;;;;;5055417;28;20110;-81
2023/05/29 12:25:54;;;;;;;1.95;0.50;;;30.80;38.30;;;;;;5060582;28;20099;-82
2023/05/29 12:28:22;;;;;;;4.82;0.70;;;30.10;38.70;;;;;;5050969;28;20140;-84
2023/05/29 12:30:58;;;;;;;3.78;0.60;;;29.40;41.00;;;;;;5050874;28;20102;-88
2023/05/29 12:33:29;;;;;;;3.03;0.50;;;30.20;40.70;;;;;;5060093;28;20047;-86
2023/05/29 12:36:06;;;;;;;4.22;0.68;;;31.00;39.30;;;;;;5059665;28;20060;-92
2023/05/29 12:38:36;;;;;;;3.95;0.47;;;32.00;38.20;;;;;;5057204;28;20052;-86
2023/05/29 12:41:03;;;;;;;5.03;0.73;;;31.10;38.30;;;;;;5074844;28;20049;-82
2023/05/29 12:43:33;;;;;;;2.28;0.68;;;31.00;39.00;;;;;;5059347;28;20447;-82
2023/05/29 12:46:02;;;;;;;2.67;0.60;;;31.70;38.70;;;;;;5063898;28;20076;-83
2023/05/29 12:48:35;;;;;;;1.33;0.80;;;32.00;37.90;;;;;;5061063;28;20105;-84
2023/05/29 12:51:08;;;;;;;5.47;1.70;;;32.10;37.10;;;;;;5057866;28;20045;-83
2023/05/29 12:53:36;;;;;;;6.38;1.10;;;32.50;37.30;;;;;;5057995;28;20037;-82
2023/05/29 12:56:04;;;;;;;6.40;1.23;;;32.50;36.80;;;;;;5055696;28;20063;-83
2023/05/29 12:58:35;;;;;;;3.53;0.80;;;32.30;36.70;;;;;;5052279;28;20654;-83
2023/05/29 13:01:04;;;;;;;9.75;1.00;;;32.40;36.40;;;;;;5063179;28;20525;-82